RJNG(METAR)
12/11 18:00
METAR RJNG 110900Z VRB02KT 9999 -RA FEW030 BKN040 OVC120 08/04 Q1023
RMK 1CU030 6SC040 8AS120 A3021=
戻る
トップページへ戻る
IMOC Co,.Ltd.